Time;durP1;ratioP1;P1;durP2;ratioP2;P2;SDS_P1;SDS_P2;PMS_P1;PMS_P2;Temp;Humidity;BMP_temperature;BMP_pressure;BME280_temperature;BME280_humidity;BME280_pressure;Samples;Min_cycle;Max_cycle;Signal;HPM_P1;HPM_P2
2022/12/26 00:01:33;;;;;;;5.50;4.07;;;10.60;99.90;;;;;;5004883;28;20507;-78
2022/12/26 00:03:59;;;;;;;4.70;4.27;;;10.50;1.00;;;;;;5005530;28;20478;-77
2022/12/26 00:06:28;;;;;;;4.67;3.90;;;10.50;99.90;;;;;;5004493;28;20222;-77
2022/12/26 00:08:54;;;;;;;5.70;4.77;;;10.40;1.00;;;;;;5005817;28;20409;-77
2022/12/26 00:11:22;;;;;;;4.90;4.40;;;10.50;1.00;;;;;;5004810;28;20184;-78
2022/12/26 00:13:55;;;;;;;5.87;4.73;;;10.50;1.00;;;;;;5004052;28;20184;-77
2022/12/26 00:16:22;;;;;;;4.60;4.20;;;10.30;1.00;;;;;;5006027;28;20365;-76
2022/12/26 00:18:48;;;;;;;5.50;4.27;;;10.30;99.90;;;;;;5005072;28;20910;-78
2022/12/26 00:21:14;;;;;;;5.10;4.40;;;10.30;99.90;;;;;;5005198;28;20191;-79
2022/12/26 00:23:40;;;;;;;6.53;4.70;;;10.20;2.10;;;;;;5003893;28;20628;-77
2022/12/26 00:26:10;;;;;;;6.43;4.60;;;10.20;1.00;;;;;;5003874;28;20307;-78
2022/12/26 00:28:36;;;;;;;5.63;4.87;;;10.20;1.00;;;;;;5004931;28;20200;-77
2022/12/26 00:31:06;;;;;;;6.10;4.67;;;10.20;1.00;;;;;;5004512;28;20202;-79
2022/12/26 00:33:34;;;;;;;6.53;4.87;;;10.20;99.90;;;;;;5004351;28;20653;-79
2022/12/26 00:36:26;;;;;;;5.97;4.97;;;10.30;99.90;;;;;;5004686;28;20184;-81
2022/12/26 00:38:52;;;;;;;5.17;4.47;;;10.40;1.00;;;;;;4998993;28;20233;-78
2022/12/26 00:41:19;;;;;;;6.07;4.73;;;10.30;1.00;;;;;;5005365;28;20676;-79
2022/12/26 00:43:45;;;;;;;5.73;4.77;;;10.30;1.00;;;;;;5002881;28;20221;-81
2022/12/26 00:46:11;;;;;;;6.57;5.37;;;10.40;1.00;;;;;;5005197;28;20677;-79
2022/12/26 00:48:37;;;;;;;5.20;4.60;;;10.30;1.00;;;;;;5003941;28;20199;-77
2022/12/26 00:51:03;;;;;;;5.47;4.77;;;10.30;99.90;;;;;;5005856;28;20187;-79
2022/12/26 00:53:28;;;;;;;7.27;5.40;;;10.20;99.90;;;;;;5003903;28;20180;-80
2022/12/26 00:55:54;;;;;;;8.10;5.50;;;10.20;99.90;;;;;;5005782;28;20190;-80
2022/12/26 00:58:20;;;;;;;7.83;5.73;;;10.20;99.90;;;;;;5004985;28;20277;-79
2022/12/26 01:00:47;;;;;;;7.17;5.57;;;10.10;1.00;;;;;;5005431;28;20196;-77
2022/12/26 01:03:13;;;;;;;10.87;6.20;;;10.10;1.00;;;;;;5004421;28;20265;-77
2022/12/26 01:05:44;;;;;;;8.20;6.50;;;10.10;84.80;;;;;;5003930;28;20207;-80
2022/12/26 01:08:09;;;;;;;8.90;6.33;;;9.90;99.90;;;;;;5005455;28;20207;-77
2022/12/26 01:10:35;;;;;;;7.67;6.10;;;9.90;99.90;;;;;;5006508;28;20788;-79
2022/12/26 01:13:00;;;;;;;7.53;6.23;;;9.90;99.90;;;;;;5005620;28;20361;-80
2022/12/26 01:15:26;;;;;;;7.60;6.27;;;9.80;99.90;;;;;;5004410;28;20271;-78
2022/12/26 01:17:52;;;;;;;8.07;6.63;;;9.80;1.00;;;;;;5005844;28;20203;-80
2022/12/26 01:20:17;;;;;;;7.70;6.17;;;9.80;1.00;;;;;;5020995;28;20665;-82
2022/12/26 01:22:43;;;;;;;9.40;5.70;;;9.80;1.00;;;;;;5005608;28;20202;-80
2022/12/26 01:25:10;;;;;;;5.67;5.10;;;9.80;1.00;;;;;;5005672;28;20211;-77
2022/12/26 01:27:36;;;;;;;4.77;4.23;;;9.80;1.00;;;;;;5004607;28;20207;-79
2022/12/26 01:30:02;;;;;;;5.07;4.50;;;9.80;99.90;;;;;;5005888;28;20192;-78
2022/12/26 01:32:27;;;;;;;5.30;4.50;;;9.90;99.90;;;;;;5006518;28;20187;-82
2022/12/26 01:34:54;;;;;;;5.57;4.43;;;9.80;1.00;;;;;;5003092;28;20381;-79
2022/12/26 01:37:22;;;;;;;5.63;4.17;;;9.80;44.20;;;;;;5004260;28;20627;-81
2022/12/26 01:39:48;;;;;;;5.17;4.67;;;9.80;25.60;;;;;;5005957;28;20538;-79
2022/12/26 01:42:16;;;;;;;6.10;4.10;;;9.80;1.00;;;;;;5003524;28;20198;-79
2022/12/26 01:44:57;;;;;;;6.27;4.77;;;9.80;1.00;;;;;;5004207;28;20269;-77
2022/12/26 01:47:29;;;;;;;5.37;4.87;;;10.30;99.90;;;;;;5005602;28;20225;-79
2022/12/26 01:49:55;;;;;;;6.03;5.17;;;9.70;99.90;;;;;;5005893;28;20268;-80
2022/12/26 01:52:32;;;;;;;5.13;4.53;;;9.80;1.00;;;;;;5004753;28;20759;-78
2022/12/26 01:54:59;;;;;;;5.50;4.43;;;9.90;1.00;;;;;;5004527;28;20486;-80
2022/12/26 01:57:40;;;;;;;5.53;4.93;;;9.80;1.00;;;;;;5004111;28;20687;-80
2022/12/26 02:00:07;;;;;;;6.57;5.50;;;9.80;1.00;;;;;;5004930;28;20194;-80
2022/12/26 02:05:32;;;;;;;7.03;5.77;;;9.80;1.00;;;;;;5006904;28;20237;-80
2022/12/26 02:05:36;;;;;;;6.57;5.93;;;9.70;99.90;;;;;;5006255;28;20198;-82
2022/12/26 02:08:08;;;;;;;8.07;6.60;;;9.60;99.90;;;;;;5006498;28;20199;-83
2022/12/26 02:11:11;;;;;;;8.07;6.63;;;9.50;1.00;;;;;;5007273;28;20194;-80
2022/12/26 02:13:38;;;;;;;7.33;6.40;;;9.40;99.90;;;;;;4993869;28;20195;-80
2022/12/26 02:16:06;;;;;;;7.60;6.67;;;9.40;99.90;;;;;;5008360;28;20234;-83
2022/12/26 02:18:31;;;;;;;8.30;6.97;;;9.40;99.90;;;;;;5002949;28;20212;-79
2022/12/26 02:20:57;;;;;;;7.50;6.70;;;9.30;99.90;;;;;;5002180;28;20214;-77
2022/12/26 02:23:25;;;;;;;7.60;6.80;;;9.20;1.00;;;;;;5001615;28;20184;-80
2022/12/26 02:26:18;;;;;;;7.87;6.73;;;9.30;1.00;;;;;;5001287;28;20249;-78
2022/12/26 02:28:56;;;;;;;9.47;6.60;;;9.10;1.00;;;;;;5001499;28;20570;-79
2022/12/26 02:31:51;;;;;;;7.43;6.07;;;9.00;1.00;;;;;;5003480;28;20191;-79
2022/12/26 02:34:48;;;;;;;7.93;5.83;;;11.30;1.00;;;;;;5000368;28;20195;-77
2022/12/26 02:37:34;;;;;;;7.27;4.77;;;9.10;1.00;;;;;;5003161;28;20355;-80
2022/12/26 02:40:22;;;;;;;6.77;5.10;;;9.10;1.00;;;;;;5001714;28;20195;-79
2022/12/26 02:42:58;;;;;;;5.20;4.30;;;9.10;1.00;;;;;;5003427;28;20195;-77
2022/12/26 02:48:56;;;;;;;4.30;3.90;;;9.20;1.00;;;;;;5003404;28;20230;-77
2022/12/26 03:14:39;;;;;;;5.00;4.27;;;9.10;1.00;;;;;;5007055;28;20253;-78
2022/12/26 03:17:20;;;;;;;6.47;4.37;;;9.00;1.00;;;;;;5022401;28;20222;-79
2022/12/26 03:20:01;;;;;;;5.07;4.57;;;8.80;1.00;;;;;;5007129;28;20171;-78
2022/12/26 03:22:47;;;;;;;5.90;4.97;;;8.80;99.90;;;;;;5008188;28;20217;-78
2022/12/26 03:28:13;;;;;;;5.43;4.77;;;8.80;99.90;;;;;;5007863;28;20222;-80
2022/12/26 03:30:48;;;;;;;5.80;4.53;;;8.80;1.00;;;;;;5008465;28;20183;-80
2022/12/26 03:36:35;;;;;;;6.30;5.27;;;8.90;1.00;;;;;;5008368;28;20241;-79
2022/12/26 04:19:22;;;;;;;6.27;5.10;;;8.90;1.00;;;;;;5007547;28;20208;-79
2022/12/26 04:20:49;;;;;;;5.60;4.57;;;8.40;52.80;;;;;;5007089;28;20234;-78
2022/12/26 04:44:02;;;;;;;5.20;4.70;;;8.20;40.00;;;;;;5008362;28;20210;-80
2022/12/26 04:46:30;;;;;;;5.73;4.60;;;8.20;61.10;;;;;;5022943;28;20218;-78
2022/12/26 04:51:43;;;;;;;4.60;4.20;;;8.30;82.40;;;;;;5008815;28;20237;-80
2022/12/26 04:54:08;;;;;;;4.97;4.40;;;8.40;93.80;;;;;;5006399;28;20199;-78
2022/12/26 04:56:34;;;;;;;4.30;3.90;;;8.40;98.30;;;;;;5007071;28;20192;-83
2022/12/26 04:59:00;;;;;;;3.93;3.43;;;8.60;99.90;;;;;;5008247;28;20262;-81
2022/12/26 05:09:45;;;;;;;2.70;2.50;;;9.00;1.00;;;;;;5009833;28;20203;-81
2022/12/26 05:12:11;;;;;;;2.10;1.90;;;9.00;99.90;;;;;;5011666;28;20188;-77
2022/12/26 05:14:36;;;;;;;2.03;1.80;;;9.10;99.90;;;;;;5005629;28;20194;-77
2022/12/26 05:30:58;;;;;;;1.60;1.50;;;9.20;99.90;;;;;;5004508;28;20214;-78
2022/12/26 05:36:09;;;;;;;1.70;1.60;;;9.20;99.90;;;;;;5004684;28;21076;-78
2022/12/26 05:38:35;;;;;;;1.40;1.30;;;9.10;25.70;;;;;;5005033;28;20201;-79
2022/12/26 05:41:01;;;;;;;2.00;1.80;;;9.10;1.00;;;;;;5003556;28;20188;-77
2022/12/26 05:43:27;;;;;;;2.30;2.00;;;9.10;1.00;;;;;;5002968;28;20179;-77
2022/12/26 05:45:52;;;;;;;1.93;1.83;;;9.10;99.90;;;;;;5002824;28;20215;-77
2022/12/26 05:48:18;;;;;;;1.70;1.60;;;9.00;1.00;;;;;;5003488;28;20203;-77
2022/12/26 05:50:43;;;;;;;1.77;1.60;;;9.00;1.00;;;;;;5005057;28;20917;-78
2022/12/26 05:53:09;;;;;;;1.33;1.23;;;9.10;1.00;;;;;;5003741;28;20183;-77
2022/12/26 05:55:35;;;;;;;1.47;1.37;;;9.10;1.00;;;;;;5004883;28;20649;-79
2022/12/26 05:58:00;;;;;;;1.70;1.60;;;9.10;1.70;;;;;;5003456;28;20226;-76
2022/12/26 06:00:28;;;;;;;1.90;1.40;;;9.10;1.00;;;;;;5005319;28;20180;-77
2022/12/26 06:02:53;;;;;;;1.83;1.70;;;9.10;99.90;;;;;;5003740;28;20250;-80
2022/12/26 06:05:19;;;;;;;2.33;1.63;;;10.40;99.90;;;;;;5020244;28;20187;-78
2022/12/26 06:07:44;;;;;;;1.53;1.43;;;9.10;99.90;;;;;;5003618;28;20211;-77
2022/12/26 06:10:10;;;;;;;1.50;1.40;;;9.20;99.90;;;;;;5003434;28;20180;-77
2022/12/26 06:12:36;;;;;;;1.80;1.70;;;9.10;99.90;;;;;;5004614;28;20183;-78
2022/12/26 06:15:02;;;;;;;1.50;1.40;;;9.30;99.90;;;;;;5003548;28;20653;-77
2022/12/26 06:17:27;;;;;;;1.50;1.40;;;9.30;99.90;;;;;;5019151;28;20199;-80
2022/12/26 06:19:53;;;;;;;1.70;1.50;;;9.20;99.90;;;;;;5004292;28;20704;-79
2022/12/26 06:22:19;;;;;;;2.37;1.67;;;9.20;99.90;;;;;;5003370;28;20180;-76
2022/12/26 06:24:44;;;;;;;2.60;1.83;;;9.20;99.90;;;;;;5004123;28;20281;-80
2022/12/26 06:27:10;;;;;;;1.83;1.60;;;9.10;99.90;;;;;;5004082;28;20218;-78
2022/12/26 06:29:35;;;;;;;2.03;1.80;;;9.20;99.90;;;;;;5003032;28;20195;-77
2022/12/26 06:32:01;;;;;;;1.77;1.67;;;9.20;99.90;;;;;;5003555;28;20179;-79
2022/12/26 06:34:27;;;;;;;3.00;2.00;;;9.10;99.90;;;;;;5002429;28;20249;-80
2022/12/26 06:36:54;;;;;;;2.10;1.90;;;9.10;99.90;;;;;;5003561;28;20188;-77
2022/12/26 06:39:20;;;;;;;2.00;1.70;;;9.10;99.90;;;;;;5006196;28;20782;-79
2022/12/26 06:41:46;;;;;;;1.87;1.60;;;9.20;99.90;;;;;;5021594;28;20183;-78
2022/12/26 06:44:12;;;;;;;1.93;1.80;;;9.20;99.90;;;;;;5009904;28;20183;-78
2022/12/26 06:46:38;;;;;;;1.90;1.80;;;9.20;99.90;;;;;;5008121;28;20658;-77
2022/12/26 06:49:05;;;;;;;1.97;1.87;;;9.20;99.90;;;;;;5007728;28;20203;-76
2022/12/26 06:51:31;;;;;;;1.80;1.70;;;9.10;99.90;;;;;;5007161;28;20209;-80
2022/12/26 06:53:59;;;;;;;2.40;2.00;;;9.10;99.90;;;;;;5023059;28;20297;-80
2022/12/26 06:56:26;;;;;;;3.23;2.60;;;10.30;99.90;;;;;;5007572;28;20179;-80
2022/12/26 06:58:53;;;;;;;2.67;2.43;;;9.10;1.00;;;;;;5007097;28;20704;-79
2022/12/26 07:01:20;;;;;;;2.63;2.43;;;9.10;1.00;;;;;;5009084;28;20183;-79
2022/12/26 07:03:46;;;;;;;3.20;2.63;;;9.10;1.00;;;;;;5008459;28;20195;-79
2022/12/26 07:06:15;;;;;;;2.30;2.10;;;9.10;1.00;;;;;;5008976;28;20207;-78
2022/12/26 07:08:41;;;;;;;5.30;2.30;;;9.00;1.00;;;;;;5023358;28;20610;-79
2022/12/26 07:11:19;;;;;;;2.40;2.20;;;9.00;1.00;;;;;;5007597;28;20329;-78
2022/12/26 07:13:45;;;;;;;4.67;2.83;;;8.90;1.00;;;;;;5008875;28;20187;-76
2022/12/26 07:16:11;;;;;;;2.47;2.27;;;9.00;1.00;;;;;;5008517;28;20790;-78
2022/12/26 07:18:37;;;;;;;2.53;2.20;;;9.00;1.00;;;;;;5006903;28;20318;-81
2022/12/26 07:21:07;;;;;;;2.70;2.50;;;9.00;1.00;;;;;;5007319;28;20650;-80
2022/12/26 07:23:32;;;;;;;2.40;2.20;;;9.70;1.00;;;;;;5006517;28;20194;-81
2022/12/26 07:25:59;;;;;;;2.53;2.33;;;9.00;1.00;;;;;;5007836;28;20203;-78
2022/12/26 07:28:25;;;;;;;3.20;2.47;;;9.00;1.00;;;;;;5006522;28;20204;-82
2022/12/26 07:30:50;;;;;;;2.57;2.37;;;9.00;1.00;;;;;;5008039;28;20564;-78
2022/12/26 07:33:16;;;;;;;2.67;2.47;;;9.10;1.00;;;;;;5007329;28;20242;-78
2022/12/26 07:35:42;;;;;;;2.77;2.57;;;9.10;1.00;;;;;;5005467;28;20202;-79
2022/12/26 07:38:08;;;;;;;2.50;2.30;;;9.10;1.00;;;;;;5007589;28;20218;-79
2022/12/26 07:40:34;;;;;;;2.97;2.70;;;9.10;1.00;;;;;;5008360;28;20179;-80
2022/12/26 07:42:59;;;;;;;2.90;2.67;;;9.10;1.00;;;;;;5007561;28;20187;-80
2022/12/26 07:45:25;;;;;;;2.90;2.60;;;9.10;99.90;;;;;;5009046;28;20179;-81
2022/12/26 07:47:55;;;;;;;3.60;2.87;;;9.00;99.90;;;;;;5008565;28;20214;-78
2022/12/26 07:50:22;;;;;;;3.50;3.20;;;9.00;99.90;;;;;;5024533;28;20199;-77
2022/12/26 07:52:47;;;;;;;3.50;3.20;;;8.90;99.90;;;;;;5008109;28;20623;-81
2022/12/26 07:55:13;;;;;;;5.07;3.40;;;10.00;1.00;;;;;;5008262;28;20188;-81
2022/12/26 07:57:39;;;;;;;3.77;3.40;;;8.90;1.00;;;;;;5023411;28;20211;-79
2022/12/26 08:00:05;;;;;;;3.80;3.37;;;8.90;1.00;;;;;;5005855;28;20179;-82
2022/12/26 08:02:30;;;;;;;3.87;3.53;;;8.90;1.00;;;;;;5007333;28;20184;-82
2022/12/26 08:04:56;;;;;;;3.93;3.60;;;8.90;1.00;;;;;;5008033;28;20187;-80
2022/12/26 08:07:22;;;;;;;4.27;3.87;;;9.00;1.00;;;;;;5009454;28;20239;-77
2022/12/26 08:09:47;;;;;;;4.43;3.80;;;8.90;1.00;;;;;;5006604;28;20237;-80
2022/12/26 08:12:13;;;;;;;5.23;4.30;;;8.90;1.00;;;;;;5005252;28;20254;-78
2022/12/26 08:14:40;;;;;;;4.80;4.10;;;8.90;1.00;;;;;;5006053;28;20261;-78
2022/12/26 08:17:06;;;;;;;4.67;4.20;;;8.90;1.00;;;;;;5005959;28;20619;-79
2022/12/26 08:19:32;;;;;;;5.17;4.40;;;8.90;99.90;;;;;;5003847;28;20206;-80
2022/12/26 08:21:58;;;;;;;5.03;4.53;;;8.90;99.90;;;;;;5005982;28;21024;-78
2022/12/26 08:24:23;;;;;;;5.03;4.30;;;8.90;97.60;;;;;;5006776;28;20273;-77
2022/12/26 08:26:49;;;;;;;5.70;5.13;;;8.80;1.00;;;;;;5005198;28;20211;-77
2022/12/26 08:29:14;;;;;;;5.67;5.07;;;9.30;33.70;;;;;;5005044;28;20791;-77
2022/12/26 08:31:40;;;;;;;5.90;4.73;;;8.80;1.00;;;;;;5003477;28;20194;-82
2022/12/26 08:34:06;;;;;;;5.50;5.00;;;8.80;66.60;;;;;;5002648;28;20190;-80
2022/12/26 08:36:31;;;;;;;5.93;5.33;;;9.00;96.00;;;;;;5003765;28;20676;-78
2022/12/26 08:38:57;;;;;;;6.20;4.87;;;9.10;99.90;;;;;;5002390;28;20262;-78
2022/12/26 08:41:23;;;;;;;4.73;4.33;;;9.10;99.90;;;;;;5002473;28;20183;-78
2022/12/26 08:43:50;;;;;;;5.37;4.87;;;9.10;1.00;;;;;;5002028;28;20202;-78
2022/12/26 08:46:17;;;;;;;5.93;5.33;;;9.10;1.00;;;;;;5004001;28;20254;-77
2022/12/26 08:48:43;;;;;;;5.47;4.97;;;9.10;1.00;;;;;;5005412;28;20196;-77
2022/12/26 08:51:21;;;;;;;7.60;5.20;;;9.10;99.90;;;;;;5020617;28;20187;-77
2022/12/26 08:53:48;;;;;;;5.63;5.10;;;9.10;60.30;;;;;;5005670;28;20654;-78
2022/12/26 08:56:16;;;;;;;9.27;7.20;;;9.00;1.00;;;;;;5002345;28;20190;-79
2022/12/26 08:58:43;;;;;;;7.57;6.50;;;9.10;1.00;;;;;;5005636;28;20246;-78
2022/12/26 09:01:13;;;;;;;6.00;5.40;;;9.20;99.90;;;;;;5003478;28;20195;-80
2022/12/26 09:03:40;;;;;;;5.77;5.17;;;9.10;99.90;;;;;;5004146;28;20278;-77
2022/12/26 09:06:07;;;;;;;4.63;4.23;;;9.10;99.90;;;;;;5001812;28;20828;-79
2022/12/26 09:08:33;;;;;;;4.90;4.40;;;9.00;99.90;;;;;;5004350;28;20576;-79
2022/12/26 09:11:11;;;;;;;5.50;4.47;;;9.00;99.90;;;;;;5002542;28;20669;-77
2022/12/26 09:13:38;;;;;;;5.00;4.50;;;9.00;99.90;;;;;;5003594;28;20521;-79
2022/12/26 09:16:37;;;;;;;5.87;5.37;;;9.00;99.90;;;;;;5003692;28;20245;-77
2022/12/26 09:19:05;;;;;;;7.77;6.70;;;8.90;99.90;;;;;;4964451;28;20234;-78
2022/12/26 09:21:31;;;;;;;5.60;5.10;;;8.80;1.00;;;;;;5003246;28;20184;-78
2022/12/26 09:24:02;;;;;;;5.70;5.20;;;10.20;1.00;;;;;;5003076;28;20179;-78
2022/12/26 09:26:28;;;;;;;6.30;5.70;;;9.00;1.00;;;;;;5003146;28;20215;-76
2022/12/26 09:28:55;;;;;;;5.87;5.37;;;8.90;1.00;;;;;;5003587;28;20213;-80
2022/12/26 09:31:24;;;;;;;5.90;5.40;;;8.90;1.00;;;;;;5002534;28;20580;-77
2022/12/26 09:33:51;;;;;;;5.93;5.40;;;8.80;3.00;;;;;;5002207;28;20180;-79
2022/12/26 09:36:20;;;;;;;4.87;4.47;;;8.80;99.90;;;;;;5001975;28;20188;-78
2022/12/26 09:38:47;;;;;;;5.30;4.87;;;8.80;1.00;;;;;;5003428;28;20866;-79
2022/12/26 09:41:12;;;;;;;5.80;5.30;;;8.80;1.00;;;;;;5004165;28;20266;-78
2022/12/26 09:43:56;;;;;;;4.90;4.50;;;8.80;1.00;;;;;;5003082;28;20314;-78
2022/12/26 09:46:59;;;;;;;5.73;4.90;;;8.80;34.40;;;;;;5003597;28;20200;-80
2022/12/26 09:49:35;;;;;;;5.13;4.63;;;8.80;1.00;;;;;;4967512;28;20213;-80
2022/12/26 09:52:09;;;;;;;4.83;4.43;;;8.80;1.00;;;;;;5002431;28;20187;-76
2022/12/26 09:54:42;;;;;;;4.50;4.10;;;8.80;1.00;;;;;;5002735;28;20183;-78
2022/12/26 09:57:15;;;;;;;4.93;4.53;;;8.80;37.30;;;;;;5018772;28;20253;-79
2022/12/26 09:59:48;;;;;;;5.40;4.90;;;8.80;99.90;;;;;;5003341;28;20211;-76
2022/12/26 10:02:20;;;;;;;5.60;4.63;;;8.90;1.00;;;;;;5004293;28;20230;-79
2022/12/26 10:04:47;;;;;;;5.50;5.07;;;8.90;99.90;;;;;;5019292;28;20195;-79
2022/12/26 10:07:32;;;;;;;5.43;5.00;;;9.00;99.90;;;;;;5003552;28;20218;-77
2022/12/26 10:10:10;;;;;;;5.37;4.87;;;9.00;99.90;;;;;;5004357;28;20183;-77
2022/12/26 10:12:57;;;;;;;5.13;4.73;;;9.10;99.90;;;;;;5003358;28;20184;-79
2022/12/26 10:15:22;;;;;;;5.17;4.77;;;9.10;99.90;;;;;;5004695;28;20199;-78
2022/12/26 10:18:03;;;;;;;5.10;4.70;;;9.60;1.00;;;;;;5002784;28;20288;-77
2022/12/26 10:20:56;;;;;;;5.57;5.07;;;9.30;1.00;;;;;;5003422;28;20314;-80
2022/12/26 10:23:31;;;;;;;5.80;5.30;;;9.30;1.00;;;;;;5004881;28;20188;-79
2022/12/26 10:26:23;;;;;;;5.53;5.03;;;9.40;99.90;;;;;;5003328;28;20203;-78
2022/12/26 10:29:09;;;;;;;5.60;5.10;;;9.40;99.90;;;;;;5004158;28;20682;-78
2022/12/26 10:31:59;;;;;;;5.53;5.03;;;9.40;99.90;;;;;;5003092;28;20183;-82
2022/12/26 10:34:33;;;;;;;5.80;5.20;;;9.30;99.90;;;;;;5004678;28;20190;-77
2022/12/26 10:37:03;;;;;;;6.20;5.63;;;9.40;99.90;;;;;;5004457;28;20192;-78
2022/12/26 10:39:54;;;;;;;6.57;5.97;;;9.40;99.90;;;;;;5004133;28;20207;-77
2022/12/26 10:42:30;;;;;;;6.33;5.73;;;9.50;99.90;;;;;;4963833;28;20206;-77
2022/12/26 10:44:57;;;;;;;6.10;5.60;;;9.50;99.90;;;;;;5003434;28;20253;-79
2022/12/26 10:47:36;;;;;;;7.10;6.40;;;9.60;47.90;;;;;;5002725;28;20212;-76
2022/12/26 10:50:02;;;;;;;6.70;6.00;;;9.50;29.70;;;;;;5002492;28;20215;-76
2022/12/26 10:52:37;;;;;;;6.90;6.13;;;9.50;91.50;;;;;;5003375;28;20188;-79
2022/12/26 10:55:04;;;;;;;5.90;5.40;;;9.50;99.90;;;;;;4987938;28;20195;-79
2022/12/26 10:57:34;;;;;;;6.43;5.33;;;9.50;73.70;;;;;;5003914;28;20199;-78
2022/12/26 11:00:01;;;;;;;5.53;4.60;;;9.70;1.00;;;;;;5002548;28;20191;-79
2022/12/26 11:02:29;;;;;;;5.47;4.80;;;9.70;1.00;;;;;;5002799;28;20728;-77
2022/12/26 11:05:10;;;;;;;4.17;3.77;;;9.70;1.00;;;;;;5003252;28;20234;-77
2022/12/26 11:07:40;;;;;;;4.10;3.50;;;9.70;1.00;;;;;;5001058;28;20219;-78
2022/12/26 11:10:20;;;;;;;4.37;3.97;;;9.70;1.00;;;;;;5002707;28;20191;-78
2022/12/26 11:12:51;;;;;;;3.97;3.67;;;9.70;1.00;;;;;;5000905;28;20183;-77
2022/12/26 11:15:17;;;;;;;3.50;3.20;;;9.80;1.00;;;;;;5002719;28;20212;-77
2022/12/26 11:17:45;;;;;;;4.13;3.50;;;9.80;1.00;;;;;;5003136;28;20246;-76
2022/12/26 11:20:14;;;;;;;3.40;3.10;;;9.90;1.00;;;;;;5001618;28;20219;-78
2022/12/26 11:22:40;;;;;;;2.93;2.73;;;9.90;1.00;;;;;;5002756;28;20360;-77
2022/12/26 11:25:08;;;;;;;2.60;2.40;;;9.90;1.00;;;;;;5001667;28;20283;-78
2022/12/26 11:27:35;;;;;;;2.97;2.50;;;9.90;1.00;;;;;;5001923;28;20862;-80
2022/12/26 11:30:13;;;;;;;2.40;2.20;;;9.80;1.00;;;;;;5002917;28;20195;-77
2022/12/26 11:32:44;;;;;;;2.57;2.37;;;9.90;1.00;;;;;;5005903;28;20218;-78
2022/12/26 11:35:18;;;;;;;2.30;2.10;;;9.90;99.90;;;;;;5003972;28;20256;-77
2022/12/26 11:37:47;;;;;;;2.30;2.10;;;10.80;1.00;;;;;;5006952;28;20715;-78
2022/12/26 11:40:27;;;;;;;4.40;2.23;;;9.70;99.90;;;;;;5007693;28;20191;-78
2022/12/26 11:42:59;;;;;;;6.00;2.50;;;9.60;1.00;;;;;;5008990;28;20684;-79
2022/12/26 11:45:29;;;;;;;2.27;2.07;;;9.70;1.00;;;;;;5008915;28;20257;-77
2022/12/26 11:47:59;;;;;;;2.13;1.93;;;9.60;1.00;;;;;;5007274;28;20222;-78
2022/12/26 11:50:28;;;;;;;2.00;1.80;;;9.60;1.00;;;;;;5006931;28;20601;-78
2022/12/26 11:52:56;;;;;;;2.57;2.00;;;9.70;1.00;;;;;;5009032;28;20187;-77
2022/12/26 11:55:25;;;;;;;1.77;1.50;;;9.70;1.00;;;;;;5006941;28;20192;-80
2022/12/26 11:58:08;;;;;;;2.50;1.40;;;9.70;1.00;;;;;;5008859;28;20585;-79
2022/12/26 12:00:40;;;;;;;1.97;1.30;;;9.80;1.00;;;;;;5010803;28;20454;-77
2022/12/26 12:03:14;;;;;;;1.27;1.10;;;9.80;99.90;;;;;;5011580;28;20200;-77
2022/12/26 12:06:01;;;;;;;1.30;1.20;;;9.90;99.90;;;;;;5023868;28;20183;-78
2022/12/26 12:08:38;;;;;;;1.83;1.10;;;10.20;99.90;;;;;;5024596;28;20560;-78
2022/12/26 12:11:23;;;;;;;1.97;1.20;;;10.00;99.90;;;;;;5024959;28;20183;-79
2022/12/26 12:13:49;;;;;;;2.47;1.10;;;10.10;99.90;;;;;;5006610;28;20253;-79
2022/12/26 12:16:30;;;;;;;2.70;1.30;;;10.20;99.90;;;;;;5005673;28;20187;-79
2022/12/26 12:19:14;;;;;;;1.13;1.00;;;10.30;99.90;;;;;;5021490;28;20219;-77
2022/12/26 12:21:45;;;;;;;2.43;1.30;;;10.30;99.90;;;;;;5004498;28;20201;-77
2022/12/26 12:24:32;;;;;;;2.83;1.20;;;10.30;99.90;;;;;;5020979;28;20287;-77
2022/12/26 12:27:01;;;;;;;3.17;1.30;;;10.30;99.90;;;;;;5021480;28;20218;-79
2022/12/26 12:29:53;;;;;;;1.37;1.00;;;10.30;99.90;;;;;;5021973;28;20207;-78
2022/12/26 12:32:46;;;;;;;1.57;1.40;;;10.30;99.90;;;;;;5006458;28;21010;-78
2022/12/26 12:36:02;;;;;;;1.63;1.40;;;10.40;99.90;;;;;;4998733;28;20603;-80
2022/12/26 12:38:55;;;;;;;2.53;1.57;;;10.10;99.90;;;;;;4972189;28;20222;-78
2022/12/26 12:41:35;;;;;;;3.50;1.47;;;9.60;99.90;;;;;;4996392;28;20190;-83
2022/12/26 12:44:13;;;;;;;1.37;1.20;;;10.20;99.90;;;;;;5021754;28;20179;-78
2022/12/26 12:47:19;;;;;;;2.13;1.00;;;10.20;99.90;;;;;;5005767;28;20213;-80
2022/12/26 12:50:10;;;;;;;1.40;1.10;;;10.20;99.90;;;;;;5007182;28;20545;-82
2022/12/26 12:53:03;;;;;;;1.10;1.00;;;10.30;99.90;;;;;;5026555;28;20180;-78
2022/12/26 12:55:57;;;;;;;1.23;1.10;;;10.20;99.90;;;;;;5012221;28;20243;-78
2022/12/26 12:58:54;;;;;;;1.20;1.10;;;10.20;99.90;;;;;;5022882;28;20238;-77
2022/12/26 13:01:34;;;;;;;1.50;1.40;;;10.00;99.90;;;;;;4995673;28;20218;-78
2022/12/26 13:04:29;;;;;;;1.17;1.07;;;9.90;99.90;;;;;;5008490;28;20187;-77
2022/12/26 13:06:59;;;;;;;1.27;1.07;;;10.00;99.90;;;;;;5005480;28;20211;-79
2022/12/26 13:09:43;;;;;;;2.10;1.13;;;10.00;99.90;;;;;;5006955;28;20211;-80
2022/12/26 13:12:17;;;;;;;1.23;1.10;;;9.90;99.90;;;;;;5004474;28;20237;-80
2022/12/26 13:14:55;;;;;;;1.07;1.00;;;9.80;99.90;;;;;;5004698;28;20192;-78
2022/12/26 13:17:36;;;;;;;1.40;1.27;;;9.90;99.90;;;;;;5002677;28;20179;-78
2022/12/26 13:20:18;;;;;;;3.57;1.27;;;9.80;99.90;;;;;;5004121;28;20278;-76
2022/12/26 13:25:42;;;;;;;2.67;1.33;;;9.80;99.90;;;;;;5004138;28;20190;-76
2022/12/26 13:28:17;;;;;;;2.20;1.20;;;9.80;99.90;;;;;;5001591;28;20357;-79
2022/12/26 13:30:43;;;;;;;1.20;1.10;;;9.80;99.90;;;;;;5005003;28;20863;-76
2022/12/26 13:33:14;;;;;;;2.17;1.20;;;9.80;99.90;;;;;;5003845;28;20199;-78
2022/12/26 13:35:55;;;;;;;2.17;1.20;;;10.00;99.90;;;;;;5003657;28;20918;-77
2022/12/26 13:38:23;;;;;;;1.60;1.20;;;10.00;99.90;;;;;;5004150;28;20286;-79
2022/12/26 13:43:53;;;;;;;2.37;1.27;;;10.00;99.90;;;;;;5004072;28;20214;-80
2022/12/26 13:44:16;;;;;;;1.70;1.10;;;10.00;99.90;;;;;;5003846;28;20659;-77
2022/12/26 13:46:43;;;;;;;2.60;1.13;;;9.90;99.90;;;;;;5003672;28;20208;-78
2022/12/26 13:49:34;;;;;;;2.07;1.10;;;9.70;99.90;;;;;;5010577;28;20203;-79
2022/12/26 13:52:09;;;;;;;3.83;1.40;;;9.50;99.90;;;;;;5001508;28;20728;-75
2022/12/26 13:54:47;;;;;;;2.83;1.20;;;9.50;99.90;;;;;;5004040;28;20184;-79
2022/12/26 13:57:24;;;;;;;2.33;1.20;;;9.40;99.90;;;;;;5003330;28;20188;-79
2022/12/26 14:00:02;;;;;;;1.97;1.00;;;9.50;99.90;;;;;;5005132;28;20703;-78
2022/12/26 14:02:53;;;;;;;1.27;1.10;;;9.60;99.90;;;;;;5004485;28;20661;-77
2022/12/26 14:05:24;;;;;;;2.10;1.10;;;9.80;99.90;;;;;;5005085;28;20230;-77
2022/12/26 14:07:53;;;;;;;1.37;0.87;;;9.80;99.90;;;;;;5005001;28;20234;-76
2022/12/26 14:10:51;;;;;;;1.43;0.83;;;9.70;99.90;;;;;;5006048;28;20249;-79
2022/12/26 14:13:41;;;;;;;2.63;0.90;;;9.80;99.90;;;;;;5020098;28;20335;-77
2022/12/26 14:16:33;;;;;;;2.47;0.90;;;9.80;99.90;;;;;;5003355;28;20838;-78
2022/12/26 14:19:30;;;;;;;2.57;0.90;;;9.70;99.90;;;;;;5004598;28;20207;-76
2022/12/26 14:22:11;;;;;;;2.10;0.97;;;9.80;99.90;;;;;;5004569;28;20179;-78
2022/12/26 14:24:54;;;;;;;1.63;1.00;;;9.70;99.90;;;;;;5003217;28;20191;-77
2022/12/26 14:27:32;;;;;;;2.57;0.90;;;9.60;99.90;;;;;;5001005;28;20211;-77
2022/12/26 14:30:21;;;;;;;3.83;1.00;;;9.60;99.90;;;;;;5003998;28;20288;-77
2022/12/26 14:33:44;;;;;;;3.43;1.00;;;9.50;99.90;;;;;;5001772;28;20234;-77
2022/12/26 14:36:30;;;;;;;2.57;1.10;;;9.40;99.90;;;;;;4946024;28;20185;-79
2022/12/26 14:39:34;;;;;;;2.93;1.00;;;9.30;99.90;;;;;;4962585;28;20900;-77
2022/12/26 14:44:55;;;;;;;3.80;1.23;;;9.30;99.90;;;;;;5001909;28;20719;-77
2022/12/26 14:47:43;;;;;;;2.73;1.17;;;9.40;99.90;;;;;;5002984;28;20245;-78
2022/12/26 14:50:30;;;;;;;1.67;1.20;;;9.30;99.90;;;;;;5005612;28;20184;-80
2022/12/26 14:53:18;;;;;;;2.20;1.00;;;9.30;99.90;;;;;;5006568;28;20205;-77
2022/12/26 14:55:52;;;;;;;1.67;0.80;;;9.20;99.90;;;;;;5004457;28;20236;-77
2022/12/26 14:58:18;;;;;;;2.50;1.30;;;9.20;99.90;;;;;;5005977;28;20599;-77
2022/12/26 15:00:44;;;;;;;2.63;1.10;;;9.20;99.90;;;;;;5009016;28;20179;-76
2022/12/26 15:03:38;;;;;;;9.00;3.83;;;9.10;99.90;;;;;;5005048;28;20692;-78
2022/12/26 15:06:34;;;;;;;6.20;2.43;;;9.10;99.90;;;;;;5006321;28;20669;-77
2022/12/26 15:09:28;;;;;;;1.47;1.10;;;8.90;99.90;;;;;;5005650;28;20231;-79
2022/12/26 15:12:12;;;;;;;1.93;1.60;;;8.60;1.00;;;;;;5007067;28;20326;-76
2022/12/26 15:15:15;;;;;;;4.60;1.70;;;8.40;1.00;;;;;;5022501;28;20372;-78
2022/12/26 15:17:47;;;;;;;1.80;1.43;;;8.30;1.00;;;;;;5021921;28;20207;-78
2022/12/26 15:20:49;;;;;;;1.83;1.40;;;8.20;99.90;;;;;;5007690;28;20238;-78
2022/12/26 15:23:30;;;;;;;3.47;1.53;;;8.20;99.90;;;;;;5008248;28;20187;-79
2022/12/26 15:26:30;;;;;;;1.23;1.20;;;8.20;99.90;;;;;;5020997;28;20268;-77
2022/12/26 15:28:55;;;;;;;2.23;1.90;;;8.10;1.00;;;;;;5005688;28;20272;-79
2022/12/26 15:31:31;;;;;;;2.03;1.60;;;8.10;99.90;;;;;;5006118;28;20217;-76
2022/12/26 15:33:56;;;;;;;2.63;1.50;;;8.20;1.00;;;;;;5005021;28;20221;-79
2022/12/26 15:36:43;;;;;;;3.47;2.07;;;8.10;1.00;;;;;;5004017;28;20249;-78
2022/12/26 15:39:26;;;;;;;2.30;2.10;;;8.10;1.00;;;;;;5005342;28;20723;-79